createdAt,value
2023-05-24T00:01:03.153Z,61.94
2023-05-24T00:03:35.069Z,58.19
2023-05-24T00:06:06.925Z,58.22
2023-05-24T00:08:35.657Z,62.12
2023-05-24T00:11:29.156Z,62.30
2023-05-24T00:13:57.838Z,66.15
2023-05-24T00:16:26.333Z,64.44
2023-05-24T00:18:54.845Z,64.41
2023-05-24T00:21:23.090Z,62.77
2023-05-24T00:23:53.049Z,63.27
2023-05-24T00:26:21.572Z,66.42
2023-05-24T00:28:56.979Z,67.40
2023-05-24T00:31:25.261Z,66.52
2023-05-24T00:33:53.608Z,65.25
2023-05-24T00:36:21.978Z,64.54
2023-05-24T00:38:50.493Z,63.34
2023-05-24T00:41:18.900Z,60.67
2023-05-24T00:43:47.284Z,58.91
2023-05-24T00:46:19.202Z,63.98
2023-05-24T00:48:47.706Z,66.49
2023-05-24T00:51:16.331Z,69.88
2023-05-24T00:53:48.118Z,68.63
2023-05-24T00:56:17.688Z,71.33
2023-05-24T00:58:46.515Z,71.23
2023-05-24T01:01:15.139Z,70.05
2023-05-24T01:03:44.268Z,65.61
2023-05-24T01:06:16.088Z,67.23
2023-05-24T01:09:06.889Z,70.17
2023-05-24T01:12:00.769Z,72.11
2023-05-24T01:15:06.169Z,76.55
2023-05-24T01:18:05.928Z,77.03
2023-05-24T01:20:38.483Z,78.65
2023-05-24T01:23:19.668Z,75.17
2023-05-24T01:26:32.147Z,73.11
2023-05-24T01:29:02.300Z,66.07
2023-05-24T01:31:30.725Z,63.50
2023-05-24T01:33:59.020Z,71.60
2023-05-24T01:36:27.306Z,68.08
2023-05-24T01:38:55.750Z,70.38
2023-05-24T01:41:38.607Z,64.47
2023-05-24T01:44:36.387Z,60.29
2023-05-24T01:47:28.293Z,58.54
2023-05-24T01:50:12.084Z,58.74
2023-05-24T01:52:40.985Z,61.75
2023-05-24T01:55:10.683Z,57.24
2023-05-24T01:57:41.706Z,60.28
2023-05-24T02:00:11.598Z,60.48
2023-05-24T02:02:42.893Z,62.09
2023-05-24T02:05:14.110Z,57.94
2023-05-24T02:07:42.591Z,68.45
2023-05-24T02:10:11.119Z,61.31
2023-05-24T02:12:39.644Z,60.45
2023-05-24T02:15:09.232Z,67.24
2023-05-24T02:17:38.115Z,70.74
2023-05-24T02:20:07.312Z,73.63
2023-05-24T02:22:35.750Z,66.96
2023-05-24T02:25:04.313Z,63.37
2023-05-24T02:27:32.616Z,73.16
2023-05-24T02:30:00.905Z,72.83
2023-05-24T02:32:29.292Z,71.95
2023-05-24T02:34:59.174Z,77.33
2023-05-24T02:37:28.149Z,72.56
2023-05-24T02:40:16.054Z,75.41
2023-05-24T02:42:44.533Z,74.07
2023-05-24T02:45:12.876Z,76.67
2023-05-24T02:47:41.559Z,77.55
2023-05-24T02:50:10.760Z,76.75
2023-05-24T02:52:39.079Z,74.29
2023-05-24T02:55:09.263Z,78.38
2023-05-24T02:57:38.318Z,78.44
2023-05-24T03:00:09.526Z,78.42
2023-05-24T03:02:38.605Z,80.25
2023-05-24T03:05:10.959Z,80.26
2023-05-24T03:07:39.462Z,74.45
2023-05-24T03:10:08.484Z,71.69
2023-05-24T03:12:36.905Z,76.36
2023-05-24T03:15:05.929Z,75.81
2023-05-24T03:17:34.407Z,75.20
2023-05-24T03:20:02.892Z,72.67
2023-05-24T03:22:32.997Z,69.69
2023-05-24T03:25:01.427Z,69.21
2023-05-24T03:27:29.702Z,73.65
2023-05-24T03:29:57.982Z,71.53
2023-05-24T03:32:30.606Z,67.82
2023-05-24T03:35:01.348Z,72.38
2023-05-24T03:37:29.689Z,69.54
2023-05-24T03:39:57.985Z,70.67
2023-05-24T03:42:55.424Z,72.18
2023-05-24T03:45:39.779Z,71.92
2023-05-24T03:48:08.791Z,75.36
2023-05-24T03:50:37.157Z,74.01
2023-05-24T03:53:05.500Z,73.02
2023-05-24T03:55:33.913Z,75.24
2023-05-24T03:58:02.306Z,70.68
2023-05-24T04:00:30.915Z,67.44
2023-05-24T04:03:00.244Z,70.86
2023-05-24T04:05:30.305Z,68.97
2023-05-24T04:07:58.807Z,67.44
2023-05-24T04:10:27.438Z,76.98
2023-05-24T04:12:57.226Z,81.73
2023-05-24T04:15:25.625Z,80.66
2023-05-24T04:17:55.183Z,80.74
2023-05-24T04:20:25.465Z,81.25
2023-05-24T04:23:18.752Z,81.72
2023-05-24T04:25:47.184Z,82.09
2023-05-24T04:28:15.541Z,82.53
2023-05-24T04:30:46.037Z,80.08
2023-05-24T04:33:15.106Z,76.70
2023-05-24T04:35:44.275Z,77.64
2023-05-24T04:38:12.763Z,79.28
2023-05-24T04:40:41.551Z,81.64
2023-05-24T04:43:10.657Z,80.02
2023-05-24T04:45:39.031Z,77.50
2023-05-24T04:48:07.496Z,75.85
2023-05-24T04:53:45.240Z,76.50
2023-05-24T04:56:15.694Z,74.04
2023-05-24T04:58:43.982Z,76.02
2023-05-24T05:01:12.538Z,76.54
2023-05-24T05:03:41.228Z,75.55
2023-05-24T05:06:09.790Z,75.54
2023-05-24T05:08:38.135Z,75.31
2023-05-24T05:11:06.431Z,77.53
2023-05-24T05:13:34.727Z,79.46
2023-05-24T05:16:03.283Z,77.98
2023-05-24T05:18:31.954Z,76.25
2023-05-24T05:21:00.394Z,76.53
2023-05-24T05:23:29.561Z,76.07
2023-05-24T05:25:58.041Z,74.57
2023-05-24T05:28:26.362Z,75.57
2023-05-24T05:30:54.664Z,75.36
2023-05-24T05:33:23.140Z,75.03
2023-05-24T05:35:53.579Z,72.67
2023-05-24T05:38:23.194Z,72.91
2023-05-24T05:40:51.445Z,75.47
2023-05-24T05:43:19.701Z,74.95
2023-05-24T05:45:48.078Z,74.57
2023-05-24T05:48:16.401Z,71.18
2023-05-24T05:50:44.771Z,73.65
2023-05-24T05:53:13.279Z,74.52
2023-05-24T05:55:46.512Z,74.45
2023-05-24T05:58:14.856Z,72.99
2023-05-24T06:00:43.224Z,73.79
2023-05-24T06:03:15.880Z,74.74
2023-05-24T06:05:44.396Z,72.03
2023-05-24T06:08:12.680Z,73.36
2023-05-24T06:10:41.110Z,72.82
2023-05-24T06:13:09.551Z,73.17
2023-05-24T06:15:38.045Z,72.05
2023-05-24T06:18:17.308Z,71.67
2023-05-24T06:20:46.429Z,71.46
2023-05-24T06:23:14.805Z,69.54
2023-05-24T06:25:45.152Z,68.10
2023-05-24T06:28:38.954Z,69.49
2023-05-24T06:31:07.467Z,69.99
2023-05-24T06:34:03.970Z,70.21
2023-05-24T06:36:43.728Z,69.82
2023-05-24T06:39:37.890Z,71.18
2023-05-24T06:42:16.632Z,68.79
2023-05-24T06:45:12.382Z,66.45
2023-05-24T06:47:48.998Z,66.37
2023-05-24T06:50:18.552Z,65.42
2023-05-24T06:53:15.482Z,64.05
2023-05-24T06:56:09.367Z,64.39
2023-05-24T06:58:37.921Z,63.74
2023-05-24T07:01:06.324Z,64.40
2023-05-24T07:03:41.797Z,64.27
2023-05-24T07:06:13.977Z,63.76
2023-05-24T07:08:42.477Z,62.53
2023-05-24T07:11:10.877Z,62.45
2023-05-24T07:13:40.266Z,63.54
2023-05-24T07:16:14.493Z,62.34
2023-05-24T07:19:10.682Z,61.53
2023-05-24T07:21:46.086Z,60.52
2023-05-24T07:24:16.092Z,60.23
2023-05-24T07:26:44.707Z,59.25
2023-05-24T07:29:15.210Z,59.05
2023-05-24T07:31:56.789Z,58.39
2023-05-24T07:34:27.604Z,57.58
2023-05-24T07:36:58.758Z,57.38
2023-05-24T07:39:27.330Z,58.19
2023-05-24T07:41:55.907Z,58.12
2023-05-24T07:44:24.223Z,58.08
2023-05-24T07:46:52.716Z,57.56
2023-05-24T07:49:22.063Z,56.09
2023-05-24T07:51:56.811Z,55.91
2023-05-24T07:54:25.522Z,54.75
2023-05-24T07:56:53.887Z,54.95
2023-05-24T07:59:27.081Z,54.52
2023-05-24T08:02:11.558Z,54.72
2023-05-24T08:04:43.549Z,52.77
2023-05-24T08:07:16.202Z,52.38
2023-05-24T08:10:13.728Z,53.25
2023-05-24T08:12:43.176Z,51.57
2023-05-24T08:15:11.909Z,51.88
2023-05-24T08:17:40.366Z,52.60
2023-05-24T08:20:16.950Z,52.22
2023-05-24T08:22:49.393Z,53.21
2023-05-24T08:25:43.033Z,52.43
2023-05-24T08:28:49.317Z,52.10
2023-05-24T08:31:17.882Z,52.16
2023-05-24T08:33:50.328Z,52.35
2023-05-24T08:36:18.848Z,50.97
2023-05-24T08:39:11.624Z,51.84
2023-05-24T08:42:07.288Z,51.92
2023-05-24T08:44:53.338Z,51.44
2023-05-24T08:47:21.855Z,52.10
2023-05-24T08:49:51.985Z,52.28
2023-05-24T08:52:21.257Z,50.43
2023-05-24T08:54:51.525Z,51.96
2023-05-24T08:57:20.118Z,51.93
2023-05-24T08:59:50.904Z,52.89
2023-05-24T09:02:27.551Z,54.54
2023-05-24T09:05:00.722Z,54.75
2023-05-24T09:07:32.406Z,55.13
2023-05-24T09:12:58.368Z,55.63
2023-05-24T09:15:26.944Z,55.30
2023-05-24T09:17:55.356Z,56.39
2023-05-24T09:20:23.735Z,57.27
2023-05-24T09:23:11.976Z,57.12
2023-05-24T09:25:48.425Z,56.19
2023-05-24T09:28:21.771Z,57.22
2023-05-24T09:31:06.292Z,56.39
2023-05-24T09:33:36.413Z,58.45
2023-05-24T09:36:07.015Z,57.80
2023-05-24T09:38:37.063Z,58.39
2023-05-24T09:41:08.331Z,58.97
2023-05-24T09:43:49.854Z,58.91
2023-05-24T09:46:20.039Z,57.90
2023-05-24T09:49:04.086Z,58.91
2023-05-24T09:51:39.719Z,58.02
2023-05-24T09:54:09.776Z,58.83
2023-05-24T09:56:40.614Z,57.72
2023-05-24T09:59:15.091Z,56.77
2023-05-24T10:01:53.926Z,57.67
2023-05-24T10:04:38.811Z,57.09
2023-05-24T10:07:07.963Z,57.67
2023-05-24T10:09:36.753Z,57.31
2023-05-24T10:12:09.736Z,56.67
2023-05-24T10:14:39.029Z,56.56
2023-05-24T10:17:08.273Z,57.80
2023-05-24T10:19:37.935Z,56.83
2023-05-24T10:22:08.851Z,56.39
2023-05-24T10:24:44.369Z,56.95
2023-05-24T10:27:22.647Z,56.75
2023-05-24T10:30:19.456Z,55.65
2023-05-24T10:32:49.221Z,54.87
2023-05-24T10:35:20.186Z,55.03
2023-05-24T10:37:48.171Z,53.34
2023-05-24T10:40:21.536Z,52.22
2023-05-24T10:42:50.282Z,51.81
2023-05-24T10:45:40.154Z,50.93
2023-05-24T10:48:13.608Z,49.17
2023-05-24T10:50:43.554Z,46.58
2023-05-24T10:53:16.924Z,46.94
2023-05-24T10:56:06.170Z,46.08
2023-05-24T10:58:35.392Z,45.74
2023-05-24T11:01:04.082Z,47.73
2023-05-24T11:03:35.487Z,48.04
2023-05-24T11:06:04.238Z,48.04
2023-05-24T11:08:37.717Z,48.74
2023-05-24T11:11:26.656Z,48.93
2023-05-24T11:13:57.932Z,48.38
2023-05-24T11:16:41.358Z,49.13
2023-05-24T11:19:24.735Z,48.31
2023-05-24T11:21:54.561Z,47.72
2023-05-24T11:24:23.529Z,48.11
2023-05-24T11:26:53.013Z,48.36
2023-05-24T11:29:22.487Z,48.47
2023-05-24T11:32:04.982Z,48.21
2023-05-24T11:34:34.348Z,47.07
2023-05-24T11:37:06.057Z,46.43
2023-05-24T11:39:37.185Z,46.80
2023-05-24T11:42:06.620Z,46.05
2023-05-24T11:44:39.123Z,45.09
2023-05-24T11:47:08.977Z,44.70
2023-05-24T11:49:37.453Z,45.09
2023-05-24T11:52:07.369Z,44.34
2023-05-24T11:54:37.353Z,45.19
2023-05-24T11:57:06.270Z,45.35
2023-05-24T12:00:17.255Z,44.65
2023-05-24T12:02:46.933Z,44.57
2023-05-24T12:05:19.045Z,44.41
2023-05-24T12:07:48.872Z,43.46
2023-05-24T12:10:17.473Z,44.59
2023-05-24T12:12:46.948Z,45.29
2023-05-24T12:15:15.452Z,44.67
2023-05-24T12:17:54.574Z,44.45
2023-05-24T12:20:51.576Z,44.69
2023-05-24T12:23:33.269Z,45.74
2023-05-24T12:26:07.192Z,45.57
2023-05-24T12:28:44.046Z,45.76
2023-05-24T12:31:42.242Z,45.38
2023-05-24T12:34:21.058Z,45.96
2023-05-24T12:36:49.834Z,45.71
2023-05-24T12:39:34.074Z,46.33
2023-05-24T12:42:06.052Z,45.43
2023-05-24T12:44:38.662Z,46.07
2023-05-24T12:47:08.860Z,45.67
2023-05-24T12:49:37.462Z,45.60
2023-05-24T12:52:06.681Z,46.02
2023-05-24T12:54:35.574Z,45.98
2023-05-24T12:57:06.334Z,46.50
2023-05-24T12:59:35.044Z,45.82
2023-05-24T13:02:03.598Z,46.63
2023-05-24T13:04:33.616Z,46.75
2023-05-24T13:07:03.158Z,46.84
2023-05-24T13:09:33.506Z,47.67
2023-05-24T13:12:04.931Z,46.88
2023-05-24T13:14:33.586Z,46.93
2023-05-24T13:17:02.120Z,46.95
2023-05-24T13:19:47.282Z,47.49
2023-05-24T13:22:40.636Z,47.13
2023-05-24T13:25:16.707Z,47.23
2023-05-24T13:28:09.962Z,46.55
2023-05-24T13:30:38.693Z,45.80
2023-05-24T13:33:08.280Z,42.89
2023-05-24T13:35:36.756Z,40.83
2023-05-24T13:38:05.423Z,42.18
2023-05-24T13:40:34.097Z,41.56
2023-05-24T13:43:02.427Z,40.04
2023-05-24T13:45:49.119Z,38.97
2023-05-24T13:48:17.434Z,40.45
2023-05-24T13:50:45.948Z,41.13
2023-05-24T13:53:15.320Z,40.80
2023-05-24T13:55:43.612Z,40.55
2023-05-24T13:58:12.337Z,41.86
2023-05-24T14:00:42.611Z,42.59
2023-05-24T14:03:24.235Z,43.72
2023-05-24T14:05:52.679Z,43.65
2023-05-24T14:08:21.149Z,44.24
2023-05-24T14:10:50.078Z,44.48
2023-05-24T14:15:51.768Z,44.55
2023-05-24T14:18:20.430Z,44.99
2023-05-24T14:20:53.163Z,44.69
2023-05-24T14:23:21.513Z,44.50
2023-05-24T14:26:14.645Z,43.33
2023-05-24T14:28:43.054Z,43.17
2023-05-24T14:31:11.464Z,43.34
2023-05-24T14:33:39.927Z,42.95
2023-05-24T14:36:09.091Z,42.23
2023-05-24T14:38:37.423Z,41.62
2023-05-24T14:41:06.154Z,42.22
2023-05-24T14:43:34.491Z,42.45
2023-05-24T14:46:07.357Z,42.84
2023-05-24T14:48:37.262Z,43.28
2023-05-24T14:51:30.622Z,43.30
2023-05-24T14:53:59.044Z,43.63
2023-05-24T14:56:27.453Z,43.26
2023-05-24T14:58:55.828Z,42.59
2023-05-24T15:01:24.167Z,42.38
2023-05-24T15:03:52.714Z,41.90
2023-05-24T15:06:21.004Z,41.42
2023-05-24T15:08:49.546Z,41.54
2023-05-24T15:11:19.295Z,41.31
2023-05-24T15:13:59.301Z,40.96
2023-05-24T15:16:28.117Z,41.42
2023-05-24T15:18:56.502Z,38.91
2023-05-24T15:21:24.792Z,37.97
2023-05-24T15:23:53.045Z,38.96
2023-05-24T15:26:21.327Z,38.63
2023-05-24T15:28:49.659Z,38.73
2023-05-24T15:31:42.661Z,39.54
2023-05-24T15:34:11.186Z,40.33
2023-05-24T15:36:39.547Z,40.29
2023-05-24T15:39:08.063Z,39.83
2023-05-24T15:41:37.742Z,39.94
2023-05-24T15:44:08.799Z,40.64
2023-05-24T15:46:43.559Z,40.70
2023-05-24T15:49:11.890Z,41.12
2023-05-24T15:54:12.367Z,42.89
2023-05-24T15:56:53.104Z,43.23
2023-05-24T15:59:46.495Z,43.43
2023-05-24T16:02:30.272Z,43.90
2023-05-24T16:04:58.738Z,43.77
2023-05-24T16:08:02.544Z,44.01
2023-05-24T16:10:31.045Z,44.05
2023-05-24T16:12:59.293Z,44.37
2023-05-24T16:15:30.035Z,44.15
2023-05-24T16:18:03.473Z,44.75
2023-05-24T16:20:31.953Z,44.95
2023-05-24T16:23:00.486Z,45.20
2023-05-24T16:25:28.777Z,45.41
2023-05-24T16:28:24.213Z,46.00
2023-05-24T16:30:57.518Z,45.75
2023-05-24T16:33:25.964Z,45.25
2023-05-24T16:35:57.048Z,45.56
2023-05-24T16:38:26.186Z,45.28
2023-05-24T16:40:54.653Z,45.30
2023-05-24T16:43:22.982Z,44.74
2023-05-24T16:45:51.779Z,44.71
2023-05-24T16:48:21.666Z,43.97
2023-05-24T16:50:51.574Z,43.95
2023-05-24T16:53:22.777Z,43.79
2023-05-24T16:55:54.115Z,42.81
2023-05-24T16:58:42.149Z,41.94
2023-05-24T17:01:12.602Z,41.00
2023-05-24T17:03:41.057Z,41.05
2023-05-24T17:06:09.393Z,40.53
2023-05-24T17:08:37.925Z,41.59
2023-05-24T17:11:07.166Z,41.51
2023-05-24T17:13:36.134Z,41.15
2023-05-24T17:16:04.889Z,41.39
2023-05-24T17:18:33.399Z,41.69
2023-05-24T17:21:04.404Z,42.34
2023-05-24T17:23:36.556Z,42.46
2023-05-24T17:26:07.801Z,42.85
2023-05-24T17:28:37.232Z,43.32
2023-05-24T17:31:07.872Z,43.40
2023-05-24T17:33:36.185Z,42.92
2023-05-24T17:36:06.173Z,43.01
2023-05-24T17:38:37.501Z,43.86
2023-05-24T17:41:09.225Z,43.87
2023-05-24T17:43:39.130Z,44.59
2023-05-24T17:46:07.763Z,44.69
2023-05-24T17:48:39.599Z,44.45
2023-05-24T17:51:09.605Z,44.55
2023-05-24T17:54:03.398Z,45.06
2023-05-24T17:56:31.880Z,45.12
2023-05-24T17:59:25.269Z,45.31
2023-05-24T18:01:53.765Z,45.51
2023-05-24T18:04:22.230Z,46.10
2023-05-24T18:06:50.517Z,45.82
2023-05-24T18:09:18.921Z,46.01
2023-05-24T18:11:47.471Z,46.17
2023-05-24T18:14:15.776Z,46.34
2023-05-24T18:16:45.812Z,46.25
2023-05-24T18:19:14.196Z,46.69
2023-05-24T18:21:42.534Z,47.70
2023-05-24T18:24:10.827Z,46.33
2023-05-24T18:26:39.101Z,47.44
2023-05-24T18:29:07.457Z,47.60
2023-05-24T18:31:36.432Z,46.91
2023-05-24T18:34:04.820Z,47.51
2023-05-24T18:36:33.270Z,47.60
2023-05-24T18:39:58.714Z,47.49
2023-05-24T18:42:27.059Z,48.05
2023-05-24T18:44:56.451Z,48.11
2023-05-24T18:47:24.784Z,47.89
2023-05-24T18:49:53.072Z,47.84
2023-05-24T18:52:21.345Z,48.09
2023-05-24T18:54:49.623Z,47.14
2023-05-24T18:57:18.000Z,46.86
2023-05-24T18:59:46.322Z,47.41
2023-05-24T19:02:14.704Z,46.89
2023-05-24T19:04:47.931Z,47.03
2023-05-24T19:07:16.241Z,47.05
2023-05-24T19:09:44.937Z,47.68
2023-05-24T19:12:13.270Z,48.72
2023-05-24T19:14:41.898Z,47.28
2023-05-24T19:17:10.170Z,47.04
2023-05-24T19:19:44.426Z,47.56
2023-05-24T19:22:12.703Z,48.89
2023-05-24T19:24:41.296Z,48.25
2023-05-24T19:27:09.592Z,48.36
2023-05-24T19:29:39.720Z,49.23
2023-05-24T19:32:08.876Z,47.85
2023-05-24T19:34:41.911Z,48.32
2023-05-24T19:37:10.307Z,47.87
2023-05-24T19:39:38.587Z,49.07
2023-05-24T19:42:06.856Z,50.41
2023-05-24T19:44:35.177Z,48.65
2023-05-24T19:47:03.630Z,48.92
2023-05-24T19:49:31.993Z,48.54
2023-05-24T19:52:00.340Z,50.03
2023-05-24T19:54:29.028Z,50.19
2023-05-24T19:56:58.341Z,51.43
2023-05-24T19:59:26.571Z,51.37
2023-05-24T20:01:55.115Z,52.31
2023-05-24T20:04:23.598Z,53.03
2023-05-24T20:06:53.639Z,52.34
2023-05-24T20:09:22.022Z,53.30
2023-05-24T20:11:51.300Z,52.63
2023-05-24T20:14:24.776Z,52.37
2023-05-24T20:16:53.022Z,52.75
2023-05-24T20:19:21.528Z,54.28
2023-05-24T20:21:49.949Z,53.57
2023-05-24T20:24:18.177Z,53.07
2023-05-24T20:26:46.518Z,53.79
2023-05-24T20:29:15.136Z,54.35
2023-05-24T20:31:43.483Z,54.21
2023-05-24T20:34:11.851Z,53.95
2023-05-24T20:36:42.088Z,54.29
2023-05-24T20:39:12.141Z,53.87
2023-05-24T20:41:40.625Z,53.59
2023-05-24T20:44:08.873Z,52.29
2023-05-24T20:46:37.258Z,52.68
2023-05-24T20:49:05.536Z,53.46
2023-05-24T20:51:34.185Z,52.79
2023-05-24T20:54:05.032Z,53.15
2023-05-24T20:56:33.329Z,52.20
2023-05-24T20:59:02.179Z,54.37
2023-05-24T21:01:30.588Z,51.72
2023-05-24T21:03:58.882Z,53.54
2023-05-24T21:06:27.170Z,52.96
2023-05-24T21:08:56.698Z,51.79
2023-05-24T21:11:24.942Z,52.29
2023-05-24T21:13:53.320Z,51.67
2023-05-24T21:16:21.617Z,50.86
2023-05-24T21:18:52.951Z,50.88
2023-05-24T21:21:23.131Z,50.40
2023-05-24T21:23:51.512Z,50.20
2023-05-24T21:26:19.753Z,50.46
2023-05-24T21:28:48.073Z,50.45
2023-05-24T21:31:17.115Z,50.32
2023-05-24T21:33:45.541Z,50.08
2023-05-24T21:36:13.888Z,49.99
2023-05-24T21:39:08.325Z,49.63
2023-05-24T21:41:38.424Z,50.83
2023-05-24T21:44:08.164Z,49.59
2023-05-24T21:46:36.619Z,49.62
2023-05-24T21:49:04.987Z,49.51
2023-05-24T21:51:33.606Z,49.15
2023-05-24T21:54:27.065Z,50.02
2023-05-24T21:56:55.537Z,50.94
2023-05-24T21:59:23.816Z,52.93
2023-05-24T22:01:52.159Z,50.59
2023-05-24T22:04:20.450Z,49.84
2023-05-24T22:06:48.727Z,49.44
2023-05-24T22:09:17.107Z,49.26
2023-05-24T22:11:45.858Z,49.94
2023-05-24T22:14:14.199Z,50.33
2023-05-24T22:16:42.550Z,50.46
2023-05-24T22:19:18.314Z,49.79
2023-05-24T22:21:50.319Z,50.02
2023-05-24T22:24:18.774Z,50.59
2023-05-24T22:26:47.113Z,50.96
2023-05-24T22:29:15.733Z,50.45
2023-05-24T22:31:44.118Z,50.00
2023-05-24T22:34:13.083Z,50.79
2023-05-24T22:36:41.457Z,51.05
2023-05-24T22:39:09.984Z,51.69
2023-05-24T22:41:38.277Z,50.77
2023-05-24T22:44:06.610Z,52.75
2023-05-24T22:46:35.008Z,55.11
2023-05-24T22:49:05.649Z,56.02
2023-05-24T22:51:34.009Z,56.99
2023-05-24T22:54:02.269Z,58.04
2023-05-24T22:56:32.242Z,54.72
2023-05-24T22:59:00.695Z,59.79
2023-05-24T23:01:28.948Z,60.22
2023-05-24T23:04:18.935Z,60.69
2023-05-24T23:06:52.233Z,67.63
2023-05-24T23:09:29.312Z,70.09
2023-05-24T23:11:58.601Z,66.46
2023-05-24T23:14:30.330Z,59.81
2023-05-24T23:17:02.511Z,58.71
2023-05-24T23:19:32.326Z,71.77
2023-05-24T23:22:03.311Z,60.59
2023-05-24T23:24:31.692Z,57.06
2023-05-24T23:26:59.983Z,55.87
2023-05-24T23:29:28.356Z,54.72
2023-05-24T23:31:56.651Z,53.58
2023-05-24T23:34:24.928Z,53.30
2023-05-24T23:36:53.517Z,53.71
2023-05-24T23:39:21.838Z,53.01
2023-05-24T23:41:50.083Z,52.75
2023-05-24T23:44:18.356Z,53.09
2023-05-24T23:46:48.044Z,52.24
2023-05-24T23:49:16.444Z,55.54
2023-05-24T23:51:44.719Z,54.37
2023-05-24T23:54:38.084Z,52.73
2023-05-24T23:57:07.569Z,53.96
2023-05-24T23:59:36.357Z,52.93
